sensor_id;sensor_type;location;lat;lon;timestamp;P1;durP1;ratioP1;P2;durP2;ratioP2
15096;SDS011;7649;52.084;7.478;2023-04-15T00:00:37;5.20;;;4.70;;
15096;SDS011;7649;52.084;7.478;2023-04-15T00:03:06;5.80;;;5.20;;
15096;SDS011;7649;52.084;7.478;2023-04-15T00:05:35;6.60;;;5.47;;
15096;SDS011;7649;52.084;7.478;2023-04-15T00:08:03;5.90;;;5.30;;
15096;SDS011;7649;52.084;7.478;2023-04-15T00:10:34;6.37;;;5.63;;
15096;SDS011;7649;52.084;7.478;2023-04-15T00:13:02;6.23;;;5.63;;
15096;SDS011;7649;52.084;7.478;2023-04-15T00:15:31;6.30;;;5.30;;
15096;SDS011;7649;52.084;7.478;2023-04-15T00:17:59;5.90;;;5.30;;
15096;SDS011;7649;52.084;7.478;2023-04-15T00:20:27;6.43;;;5.83;;
15096;SDS011;7649;52.084;7.478;2023-04-15T00:22:55;5.93;;;5.37;;
15096;SDS011;7649;52.084;7.478;2023-04-15T00:25:25;5.93;;;5.30;;
15096;SDS011;7649;52.084;7.478;2023-04-15T00:27:55;6.47;;;5.53;;
15096;SDS011;7649;52.084;7.478;2023-04-15T00:30:24;6.07;;;5.37;;
15096;SDS011;7649;52.084;7.478;2023-04-15T00:32:52;6.53;;;5.77;;
15096;SDS011;7649;52.084;7.478;2023-04-15T00:35:21;5.80;;;5.27;;
15096;SDS011;7649;52.084;7.478;2023-04-15T00:37:50;6.33;;;5.50;;
15096;SDS011;7649;52.084;7.478;2023-04-15T00:40:20;7.00;;;6.27;;
15096;SDS011;7649;52.084;7.478;2023-04-15T00:42:50;14.13;;;11.23;;
15096;SDS011;7649;52.084;7.478;2023-04-15T00:45:20;7.33;;;6.63;;
15096;SDS011;7649;52.084;7.478;2023-04-15T00:47:48;8.17;;;6.93;;
15096;SDS011;7649;52.084;7.478;2023-04-15T00:50:18;9.50;;;6.07;;
15096;SDS011;7649;52.084;7.478;2023-04-15T00:52:46;6.37;;;5.33;;
15096;SDS011;7649;52.084;7.478;2023-04-15T00:55:14;7.00;;;5.67;;
15096;SDS011;7649;52.084;7.478;2023-04-15T00:57:43;6.40;;;5.80;;
15096;SDS011;7649;52.084;7.478;2023-04-15T01:00:11;6.10;;;5.43;;
15096;SDS011;7649;52.084;7.478;2023-04-15T01:02:41;6.17;;;5.57;;
15096;SDS011;7649;52.084;7.478;2023-04-15T01:05:10;5.87;;;5.37;;
15096;SDS011;7649;52.084;7.478;2023-04-15T01:07:38;6.67;;;5.37;;
15096;SDS011;7649;52.084;7.478;2023-04-15T01:10:07;6.17;;;5.60;;
15096;SDS011;7649;52.084;7.478;2023-04-15T01:12:35;5.80;;;5.20;;
15096;SDS011;7649;52.084;7.478;2023-04-15T01:15:05;6.13;;;5.60;;
15096;SDS011;7649;52.084;7.478;2023-04-15T01:17:34;6.30;;;5.70;;
15096;SDS011;7649;52.084;7.478;2023-04-15T01:20:05;6.50;;;5.80;;
15096;SDS011;7649;52.084;7.478;2023-04-15T01:22:35;6.00;;;5.40;;
15096;SDS011;7649;52.084;7.478;2023-04-15T01:25:04;6.73;;;6.07;;
15096;SDS011;7649;52.084;7.478;2023-04-15T01:27:35;7.43;;;6.63;;
15096;SDS011;7649;52.084;7.478;2023-04-15T01:30:06;6.57;;;5.87;;
15096;SDS011;7649;52.084;7.478;2023-04-15T01:32:35;8.83;;;5.63;;
15096;SDS011;7649;52.084;7.478;2023-04-15T01:35:04;6.27;;;5.67;;
15096;SDS011;7649;52.084;7.478;2023-04-15T01:37:33;6.53;;;5.47;;
15096;SDS011;7649;52.084;7.478;2023-04-15T01:40:02;6.20;;;5.60;;
15096;SDS011;7649;52.084;7.478;2023-04-15T01:42:30;6.80;;;5.70;;
15096;SDS011;7649;52.084;7.478;2023-04-15T01:45:00;6.53;;;5.93;;
15096;SDS011;7649;52.084;7.478;2023-04-15T01:47:28;6.73;;;6.03;;
15096;SDS011;7649;52.084;7.478;2023-04-15T01:49:57;8.10;;;6.23;;
15096;SDS011;7649;52.084;7.478;2023-04-15T01:52:25;7.27;;;6.10;;
15096;SDS011;7649;52.084;7.478;2023-04-15T01:54:53;6.30;;;5.70;;
15096;SDS011;7649;52.084;7.478;2023-04-15T01:57:22;6.87;;;6.10;;
15096;SDS011;7649;52.084;7.478;2023-04-15T01:59:50;6.20;;;5.70;;
15096;SDS011;7649;52.084;7.478;2023-04-15T02:02:20;6.57;;;5.87;;
15096;SDS011;7649;52.084;7.478;2023-04-15T02:04:48;7.47;;;6.23;;
15096;SDS011;7649;52.084;7.478;2023-04-15T02:07:16;6.53;;;5.93;;
15096;SDS011;7649;52.084;7.478;2023-04-15T02:09:45;7.20;;;6.33;;
15096;SDS011;7649;52.084;7.478;2023-04-15T02:12:13;6.57;;;5.93;;
15096;SDS011;7649;52.084;7.478;2023-04-15T02:14:41;5.97;;;5.47;;
15096;SDS011;7649;52.084;7.478;2023-04-15T02:17:10;7.30;;;5.80;;
15096;SDS011;7649;52.084;7.478;2023-04-15T02:19:39;6.67;;;6.03;;
15096;SDS011;7649;52.084;7.478;2023-04-15T02:22:08;7.23;;;6.53;;
15096;SDS011;7649;52.084;7.478;2023-04-15T02:24:40;6.70;;;6.10;;
15096;SDS011;7649;52.084;7.478;2023-04-15T02:27:08;9.47;;;6.67;;
15096;SDS011;7649;52.084;7.478;2023-04-15T02:29:36;9.43;;;6.87;;
15096;SDS011;7649;52.084;7.478;2023-04-15T02:32:05;6.50;;;5.90;;
15096;SDS011;7649;52.084;7.478;2023-04-15T02:34:33;6.33;;;5.77;;
15096;SDS011;7649;52.084;7.478;2023-04-15T02:37:04;6.97;;;6.37;;
15096;SDS011;7649;52.084;7.478;2023-04-15T02:39:32;8.67;;;6.47;;
15096;SDS011;7649;52.084;7.478;2023-04-15T02:42:01;7.07;;;6.37;;
15096;SDS011;7649;52.084;7.478;2023-04-15T02:44:30;7.77;;;6.20;;
15096;SDS011;7649;52.084;7.478;2023-04-15T02:46:59;8.77;;;6.90;;
15096;SDS011;7649;52.084;7.478;2023-04-15T02:49:28;7.63;;;6.83;;
15096;SDS011;7649;52.084;7.478;2023-04-15T02:51:56;6.87;;;6.17;;
15096;SDS011;7649;52.084;7.478;2023-04-15T02:54:27;8.23;;;6.60;;
15096;SDS011;7649;52.084;7.478;2023-04-15T02:56:55;7.00;;;6.30;;
15096;SDS011;7649;52.084;7.478;2023-04-15T02:59:23;7.27;;;6.57;;
15096;SDS011;7649;52.084;7.478;2023-04-15T03:01:51;7.83;;;7.03;;
15096;SDS011;7649;52.084;7.478;2023-04-15T03:04:21;7.90;;;7.10;;
15096;SDS011;7649;52.084;7.478;2023-04-15T03:06:50;7.30;;;6.60;;
15096;SDS011;7649;52.084;7.478;2023-04-15T03:09:18;7.30;;;6.70;;
15096;SDS011;7649;52.084;7.478;2023-04-15T03:11:47;7.20;;;6.50;;
15096;SDS011;7649;52.084;7.478;2023-04-15T03:14:18;7.50;;;6.80;;
15096;SDS011;7649;52.084;7.478;2023-04-15T03:16:47;7.60;;;6.90;;
15096;SDS011;7649;52.084;7.478;2023-04-15T03:19:15;7.23;;;6.53;;
15096;SDS011;7649;52.084;7.478;2023-04-15T03:21:44;8.03;;;7.23;;
15096;SDS011;7649;52.084;7.478;2023-04-15T03:24:12;8.47;;;7.07;;
15096;SDS011;7649;52.084;7.478;2023-04-15T03:26:40;8.50;;;7.67;;
15096;SDS011;7649;52.084;7.478;2023-04-15T03:29:10;8.60;;;7.10;;
15096;SDS011;7649;52.084;7.478;2023-04-15T03:31:38;7.83;;;6.90;;
15096;SDS011;7649;52.084;7.478;2023-04-15T03:34:06;7.97;;;7.13;;
15096;SDS011;7649;52.084;7.478;2023-04-15T03:36:35;7.63;;;6.93;;
15096;SDS011;7649;52.084;7.478;2023-04-15T03:39:03;7.43;;;6.73;;
15096;SDS011;7649;52.084;7.478;2023-04-15T03:41:31;7.93;;;7.13;;
15096;SDS011;7649;52.084;7.478;2023-04-15T03:44:00;7.93;;;7.23;;
15096;SDS011;7649;52.084;7.478;2023-04-15T03:46:29;7.37;;;6.67;;
15096;SDS011;7649;52.084;7.478;2023-04-15T03:48:58;9.60;;;7.23;;
15096;SDS011;7649;52.084;7.478;2023-04-15T03:51:26;8.63;;;7.80;;
15096;SDS011;7649;52.084;7.478;2023-04-15T03:53:54;8.47;;;7.67;;
15096;SDS011;7649;52.084;7.478;2023-04-15T03:56:24;8.33;;;7.53;;
15096;SDS011;7649;52.084;7.478;2023-04-15T03:58:52;7.87;;;7.07;;
15096;SDS011;7649;52.084;7.478;2023-04-15T04:01:21;8.17;;;7.27;;
15096;SDS011;7649;52.084;7.478;2023-04-15T04:03:51;9.30;;;8.03;;
15096;SDS011;7649;52.084;7.478;2023-04-15T04:06:19;8.97;;;8.03;;
15096;SDS011;7649;52.084;7.478;2023-04-15T04:08:47;8.70;;;7.80;;
15096;SDS011;7649;52.084;7.478;2023-04-15T04:11:15;12.50;;;7.80;;
15096;SDS011;7649;52.084;7.478;2023-04-15T04:13:44;9.07;;;8.13;;
15096;SDS011;7649;52.084;7.478;2023-04-15T04:16:12;8.60;;;7.67;;
15096;SDS011;7649;52.084;7.478;2023-04-15T04:18:40;11.07;;;8.17;;
15096;SDS011;7649;52.084;7.478;2023-04-15T04:21:10;9.20;;;8.27;;
15096;SDS011;7649;52.084;7.478;2023-04-15T04:23:38;9.27;;;8.07;;
15096;SDS011;7649;52.084;7.478;2023-04-15T04:26:06;9.43;;;8.13;;
15096;SDS011;7649;52.084;7.478;2023-04-15T04:28:34;8.83;;;8.13;;
15096;SDS011;7649;52.084;7.478;2023-04-15T04:31:05;10.30;;;9.30;;
15096;SDS011;7649;52.084;7.478;2023-04-15T04:33:33;10.37;;;9.37;;
15096;SDS011;7649;52.084;7.478;2023-04-15T04:36:01;13.73;;;9.60;;
15096;SDS011;7649;52.084;7.478;2023-04-15T04:38:31;10.70;;;8.70;;
15096;SDS011;7649;52.084;7.478;2023-04-15T04:40:59;10.47;;;9.47;;
15096;SDS011;7649;52.084;7.478;2023-04-15T04:43:27;10.67;;;9.60;;
15096;SDS011;7649;52.084;7.478;2023-04-15T04:45:56;10.07;;;9.17;;
15096;SDS011;7649;52.084;7.478;2023-04-15T04:48:24;10.70;;;9.60;;
15096;SDS011;7649;52.084;7.478;2023-04-15T04:50:52;10.83;;;9.73;;
15096;SDS011;7649;52.084;7.478;2023-04-15T04:53:21;10.30;;;9.30;;
15096;SDS011;7649;52.084;7.478;2023-04-15T04:55:50;10.17;;;9.17;;
15096;SDS011;7649;52.084;7.478;2023-04-15T04:58:19;13.50;;;10.13;;
15096;SDS011;7649;52.084;7.478;2023-04-15T05:00:47;10.87;;;9.77;;
15096;SDS011;7649;52.084;7.478;2023-04-15T05:03:15;11.93;;;10.70;;
15096;SDS011;7649;52.084;7.478;2023-04-15T05:05:44;12.30;;;9.93;;
15096;SDS011;7649;52.084;7.478;2023-04-15T05:08:14;11.40;;;9.83;;
15096;SDS011;7649;52.084;7.478;2023-04-15T05:10:42;11.73;;;10.07;;
15096;SDS011;7649;52.084;7.478;2023-04-15T05:13:12;10.77;;;9.67;;
15096;SDS011;7649;52.084;7.478;2023-04-15T05:15:40;11.47;;;9.33;;
15096;SDS011;7649;52.084;7.478;2023-04-15T05:18:09;10.80;;;9.70;;
15096;SDS011;7649;52.084;7.478;2023-04-15T05:20:37;10.83;;;9.83;;
15096;SDS011;7649;52.084;7.478;2023-04-15T05:23:05;17.37;;;10.70;;
15096;SDS011;7649;52.084;7.478;2023-04-15T05:25:33;11.47;;;10.30;;
15096;SDS011;7649;52.084;7.478;2023-04-15T05:28:02;14.27;;;10.40;;
15096;SDS011;7649;52.084;7.478;2023-04-15T05:30:31;12.50;;;11.17;;
15096;SDS011;7649;52.084;7.478;2023-04-15T05:33:00;11.63;;;10.53;;
15096;SDS011;7649;52.084;7.478;2023-04-15T05:35:28;12.80;;;10.67;;
15096;SDS011;7649;52.084;7.478;2023-04-15T05:37:56;13.27;;;10.63;;
15096;SDS011;7649;52.084;7.478;2023-04-15T05:40:24;12.27;;;10.30;;
15096;SDS011;7649;52.084;7.478;2023-04-15T05:42:53;11.43;;;10.30;;
15096;SDS011;7649;52.084;7.478;2023-04-15T05:45:21;11.73;;;10.60;;
15096;SDS011;7649;52.084;7.478;2023-04-15T05:47:51;12.40;;;11.20;;
15096;SDS011;7649;52.084;7.478;2023-04-15T05:50:19;12.67;;;11.37;;
15096;SDS011;7649;52.084;7.478;2023-04-15T05:52:48;12.20;;;10.73;;
15096;SDS011;7649;52.084;7.478;2023-04-15T05:55:16;13.17;;;11.20;;
15096;SDS011;7649;52.084;7.478;2023-04-15T05:57:44;15.40;;;12.30;;
15096;SDS011;7649;52.084;7.478;2023-04-15T06:00:13;11.43;;;10.13;;
15096;SDS011;7649;52.084;7.478;2023-04-15T06:02:41;13.53;;;10.60;;
15096;SDS011;7649;52.084;7.478;2023-04-15T06:05:11;13.13;;;10.57;;
15096;SDS011;7649;52.084;7.478;2023-04-15T06:07:40;13.07;;;11.00;;
15096;SDS011;7649;52.084;7.478;2023-04-15T06:10:10;14.47;;;10.80;;
15096;SDS011;7649;52.084;7.478;2023-04-15T06:12:38;14.13;;;11.40;;
15096;SDS011;7649;52.084;7.478;2023-04-15T06:15:07;11.90;;;10.63;;
15096;SDS011;7649;52.084;7.478;2023-04-15T06:17:36;12.67;;;11.33;;
15096;SDS011;7649;52.084;7.478;2023-04-15T06:20:05;13.40;;;11.00;;
15096;SDS011;7649;52.084;7.478;2023-04-15T06:22:35;11.53;;;10.43;;
15096;SDS011;7649;52.084;7.478;2023-04-15T06:25:04;12.13;;;10.93;;
15096;SDS011;7649;52.084;7.478;2023-04-15T06:27:33;12.30;;;11.07;;
15096;SDS011;7649;52.084;7.478;2023-04-15T06:30:01;11.83;;;10.63;;
15096;SDS011;7649;52.084;7.478;2023-04-15T06:32:29;13.77;;;11.93;;
15096;SDS011;7649;52.084;7.478;2023-04-15T06:34:59;12.77;;;11.47;;
15096;SDS011;7649;52.084;7.478;2023-04-15T06:37:27;13.17;;;11.07;;
15096;SDS011;7649;52.084;7.478;2023-04-15T06:39:57;11.97;;;10.73;;
15096;SDS011;7649;52.084;7.478;2023-04-15T06:42:26;13.00;;;11.50;;
15096;SDS011;7649;52.084;7.478;2023-04-15T06:44:54;13.07;;;11.73;;
15096;SDS011;7649;52.084;7.478;2023-04-15T06:47:40;14.10;;;10.57;;
15096;SDS011;7649;52.084;7.478;2023-04-15T06:50:09;12.67;;;11.37;;
15096;SDS011;7649;52.084;7.478;2023-04-15T06:52:37;14.87;;;11.93;;
15096;SDS011;7649;52.084;7.478;2023-04-15T06:55:07;15.53;;;12.33;;
15096;SDS011;7649;52.084;7.478;2023-04-15T06:57:36;14.97;;;12.40;;
15096;SDS011;7649;52.084;7.478;2023-04-15T07:00:05;13.37;;;12.07;;
15096;SDS011;7649;52.084;7.478;2023-04-15T07:02:33;15.37;;;12.27;;
15096;SDS011;7649;52.084;7.478;2023-04-15T07:05:02;13.07;;;11.67;;
15096;SDS011;7649;52.084;7.478;2023-04-15T07:07:30;16.73;;;11.63;;
15096;SDS011;7649;52.084;7.478;2023-04-15T07:09:59;13.20;;;11.87;;
15096;SDS011;7649;52.084;7.478;2023-04-15T07:12:30;12.87;;;11.53;;
15096;SDS011;7649;52.084;7.478;2023-04-15T07:14:58;14.40;;;12.10;;
15096;SDS011;7649;52.084;7.478;2023-04-15T07:17:26;13.03;;;11.70;;
15096;SDS011;7649;52.084;7.478;2023-04-15T07:19:55;12.50;;;11.30;;
15096;SDS011;7649;52.084;7.478;2023-04-15T07:22:24;14.70;;;12.03;;
15096;SDS011;7649;52.084;7.478;2023-04-15T07:24:52;13.37;;;12.03;;
15096;SDS011;7649;52.084;7.478;2023-04-15T07:27:20;13.03;;;11.73;;
15096;SDS011;7649;52.084;7.478;2023-04-15T07:29:50;13.03;;;11.73;;
15096;SDS011;7649;52.084;7.478;2023-04-15T07:32:18;12.53;;;11.30;;
15096;SDS011;7649;52.084;7.478;2023-04-15T07:34:47;12.10;;;10.80;;
15096;SDS011;7649;52.084;7.478;2023-04-15T07:37:15;13.67;;;11.23;;
15096;SDS011;7649;52.084;7.478;2023-04-15T07:39:44;13.63;;;11.53;;
15096;SDS011;7649;52.084;7.478;2023-04-15T07:42:12;12.73;;;11.33;;
15096;SDS011;7649;52.084;7.478;2023-04-15T07:44:40;14.20;;;11.50;;
15096;SDS011;7649;52.084;7.478;2023-04-15T07:47:10;12.80;;;11.50;;
15096;SDS011;7649;52.084;7.478;2023-04-15T07:49:38;14.07;;;11.33;;
15096;SDS011;7649;52.084;7.478;2023-04-15T07:52:06;13.57;;;11.60;;
15096;SDS011;7649;52.084;7.478;2023-04-15T07:54:35;12.47;;;11.27;;
15096;SDS011;7649;52.084;7.478;2023-04-15T07:57:03;12.53;;;10.90;;
15096;SDS011;7649;52.084;7.478;2023-04-15T07:59:31;12.97;;;11.13;;
15096;SDS011;7649;52.084;7.478;2023-04-15T08:02:00;11.80;;;10.70;;
15096;SDS011;7649;52.084;7.478;2023-04-15T08:04:29;11.67;;;10.47;;
15096;SDS011;7649;52.084;7.478;2023-04-15T08:06:59;18.20;;;10.70;;
15096;SDS011;7649;52.084;7.478;2023-04-15T08:09:28;11.57;;;10.17;;
15096;SDS011;7649;52.084;7.478;2023-04-15T08:11:56;11.53;;;10.30;;
15096;SDS011;7649;52.084;7.478;2023-04-15T08:14:24;11.67;;;10.47;;
15096;SDS011;7649;52.084;7.478;2023-04-15T08:16:52;11.27;;;10.13;;
15096;SDS011;7649;52.084;7.478;2023-04-15T08:19:21;10.63;;;9.63;;
15096;SDS011;7649;52.084;7.478;2023-04-15T08:21:50;12.77;;;9.93;;
15096;SDS011;7649;52.084;7.478;2023-04-15T08:24:18;10.10;;;8.73;;
15096;SDS011;7649;52.084;7.478;2023-04-15T08:26:47;10.60;;;8.97;;
15096;SDS011;7649;52.084;7.478;2023-04-15T08:29:15;11.63;;;10.43;;
15096;SDS011;7649;52.084;7.478;2023-04-15T08:31:43;10.83;;;9.73;;
15096;SDS011;7649;52.084;7.478;2023-04-15T08:34:13;11.23;;;9.83;;
15096;SDS011;7649;52.084;7.478;2023-04-15T08:36:41;12.33;;;9.73;;
15096;SDS011;7649;52.084;7.478;2023-04-15T08:39:11;10.40;;;8.60;;
15096;SDS011;7649;52.084;7.478;2023-04-15T08:41:46;10.83;;;9.27;;
15096;SDS011;7649;52.084;7.478;2023-04-15T08:44:14;10.53;;;8.80;;
15096;SDS011;7649;52.084;7.478;2023-04-15T08:46:42;11.53;;;8.63;;
15096;SDS011;7649;52.084;7.478;2023-04-15T08:49:11;9.30;;;8.20;;
15096;SDS011;7649;52.084;7.478;2023-04-15T08:51:40;9.33;;;8.43;;
15096;SDS011;7649;52.084;7.478;2023-04-15T08:54:08;9.00;;;8.10;;
15096;SDS011;7649;52.084;7.478;2023-04-15T08:56:38;8.47;;;7.67;;
15096;SDS011;7649;52.084;7.478;2023-04-15T08:59:07;9.10;;;8.20;;
15096;SDS011;7649;52.084;7.478;2023-04-15T09:01:36;9.00;;;8.00;;
15096;SDS011;7649;52.084;7.478;2023-04-15T09:04:04;8.60;;;7.80;;
15096;SDS011;7649;52.084;7.478;2023-04-15T09:06:34;8.93;;;8.03;;
15096;SDS011;7649;52.084;7.478;2023-04-15T09:09:02;9.23;;;7.63;;
15096;SDS011;7649;52.084;7.478;2023-04-15T09:11:30;9.20;;;8.27;;
15096;SDS011;7649;52.084;7.478;2023-04-15T09:14:00;14.60;;;8.40;;
15096;SDS011;7649;52.084;7.478;2023-04-15T09:16:28;10.53;;;8.47;;
15096;SDS011;7649;52.084;7.478;2023-04-15T09:18:57;9.10;;;8.17;;
15096;SDS011;7649;52.084;7.478;2023-04-15T09:21:26;8.77;;;7.97;;
15096;SDS011;7649;52.084;7.478;2023-04-15T09:23:55;8.73;;;7.83;;
15096;SDS011;7649;52.084;7.478;2023-04-15T09:26:30;13.83;;;8.53;;
15096;SDS011;7649;52.084;7.478;2023-04-15T09:29:07;9.03;;;8.10;;
15096;SDS011;7649;52.084;7.478;2023-04-15T09:31:35;8.70;;;7.50;;
15096;SDS011;7649;52.084;7.478;2023-04-15T09:34:04;8.20;;;7.40;;
15096;SDS011;7649;52.084;7.478;2023-04-15T09:36:37;8.83;;;8.00;;
15096;SDS011;7649;52.084;7.478;2023-04-15T09:39:08;7.90;;;7.10;;
15096;SDS011;7649;52.084;7.478;2023-04-15T09:41:36;8.43;;;7.63;;
15096;SDS011;7649;52.084;7.478;2023-04-15T09:44:06;8.37;;;7.23;;
15096;SDS011;7649;52.084;7.478;2023-04-15T09:46:48;7.13;;;6.53;;
15096;SDS011;7649;52.084;7.478;2023-04-15T09:49:17;8.53;;;6.77;;
15096;SDS011;7649;52.084;7.478;2023-04-15T09:51:46;9.37;;;7.00;;
15096;SDS011;7649;52.084;7.478;2023-04-15T09:54:34;7.43;;;6.73;;
15096;SDS011;7649;52.084;7.478;2023-04-15T09:57:06;7.37;;;6.67;;
15096;SDS011;7649;52.084;7.478;2023-04-15T09:59:36;7.90;;;6.97;;
15096;SDS011;7649;52.084;7.478;2023-04-15T10:02:04;8.10;;;7.10;;
15096;SDS011;7649;52.084;7.478;2023-04-15T10:04:34;8.50;;;7.30;;
15096;SDS011;7649;52.084;7.478;2023-04-15T10:07:03;8.13;;;7.33;;
15096;SDS011;7649;52.084;7.478;2023-04-15T10:09:32;8.00;;;7.20;;
15096;SDS011;7649;52.084;7.478;2023-04-15T10:12:01;7.33;;;6.63;;
15096;SDS011;7649;52.084;7.478;2023-04-15T10:14:32;6.77;;;6.17;;
15096;SDS011;7649;52.084;7.478;2023-04-15T10:17:02;7.13;;;6.53;;
15096;SDS011;7649;52.084;7.478;2023-04-15T10:19:32;7.83;;;6.77;;
15096;SDS011;7649;52.084;7.478;2023-04-15T10:22:00;7.37;;;6.67;;
15096;SDS011;7649;52.084;7.478;2023-04-15T10:24:29;8.17;;;6.23;;
15096;SDS011;7649;52.084;7.478;2023-04-15T10:26:58;11.80;;;7.10;;
15096;SDS011;7649;52.084;7.478;2023-04-15T10:29:27;7.20;;;6.50;;
15096;SDS011;7649;52.084;7.478;2023-04-15T10:31:55;7.83;;;6.63;;
15096;SDS011;7649;52.084;7.478;2023-04-15T10:34:25;7.13;;;6.30;;
15096;SDS011;7649;52.084;7.478;2023-04-15T10:36:54;7.57;;;6.30;;
15096;SDS011;7649;52.084;7.478;2023-04-15T10:39:41;8.23;;;6.40;;
15096;SDS011;7649;52.084;7.478;2023-04-15T10:42:11;7.87;;;6.10;;
15096;SDS011;7649;52.084;7.478;2023-04-15T10:44:41;10.30;;;5.67;;
15096;SDS011;7649;52.084;7.478;2023-04-15T10:47:09;8.47;;;5.80;;
15096;SDS011;7649;52.084;7.478;2023-04-15T10:49:43;5.93;;;5.40;;
15096;SDS011;7649;52.084;7.478;2023-04-15T10:52:12;5.60;;;5.10;;
15096;SDS011;7649;52.084;7.478;2023-04-15T10:54:41;8.27;;;5.73;;
15096;SDS011;7649;52.084;7.478;2023-04-15T10:57:13;6.33;;;5.40;;
15096;SDS011;7649;52.084;7.478;2023-04-15T11:02:44;5.77;;;5.27;;
15096;SDS011;7649;52.084;7.478;2023-04-15T11:05:15;5.80;;;5.00;;
15096;SDS011;7649;52.084;7.478;2023-04-15T11:07:47;5.80;;;5.30;;
15096;SDS011;7649;52.084;7.478;2023-04-15T11:13:22;5.40;;;4.90;;
15096;SDS011;7649;52.084;7.478;2023-04-15T11:15:54;4.90;;;4.50;;
15096;SDS011;7649;52.084;7.478;2023-04-15T11:18:24;4.87;;;4.47;;
15096;SDS011;7649;52.084;7.478;2023-04-15T11:20:55;4.70;;;4.30;;
15096;SDS011;7649;52.084;7.478;2023-04-15T11:23:34;5.30;;;4.80;;
15096;SDS011;7649;52.084;7.478;2023-04-15T11:26:04;5.37;;;4.60;;
15096;SDS011;7649;52.084;7.478;2023-04-15T11:28:35;5.33;;;4.77;;
15096;SDS011;7649;52.084;7.478;2023-04-15T11:31:05;5.10;;;4.60;;
15096;SDS011;7649;52.084;7.478;2023-04-15T11:33:36;4.37;;;4.03;;
15096;SDS011;7649;52.084;7.478;2023-04-15T11:36:06;3.77;;;3.40;;
15096;SDS011;7649;52.084;7.478;2023-04-15T11:38:35;4.07;;;3.77;;
15096;SDS011;7649;52.084;7.478;2023-04-15T11:41:04;4.30;;;3.90;;
15096;SDS011;7649;52.084;7.478;2023-04-15T11:43:32;4.00;;;3.60;;
15096;SDS011;7649;52.084;7.478;2023-04-15T11:46:01;3.90;;;3.57;;
15096;SDS011;7649;52.084;7.478;2023-04-15T11:48:31;5.70;;;4.37;;
15096;SDS011;7649;52.084;7.478;2023-04-15T11:51:00;4.23;;;3.83;;
15096;SDS011;7649;52.084;7.478;2023-04-15T11:53:36;4.93;;;3.83;;
15096;SDS011;7649;52.084;7.478;2023-04-15T11:56:06;3.97;;;3.60;;
15096;SDS011;7649;52.084;7.478;2023-04-15T11:58:35;5.47;;;3.60;;
15096;SDS011;7649;52.084;7.478;2023-04-15T12:01:05;4.30;;;3.80;;
15096;SDS011;7649;52.084;7.478;2023-04-15T12:03:37;4.03;;;3.70;;
15096;SDS011;7649;52.084;7.478;2023-04-15T12:06:07;4.90;;;3.60;;
15096;SDS011;7649;52.084;7.478;2023-04-15T12:11:37;3.90;;;3.60;;
15096;SDS011;7649;52.084;7.478;2023-04-15T12:14:07;5.20;;;4.70;;
15096;SDS011;7649;52.084;7.478;2023-04-15T12:16:37;6.00;;;4.60;;
15096;SDS011;7649;52.084;7.478;2023-04-15T12:19:15;4.43;;;4.03;;
15096;SDS011;7649;52.084;7.478;2023-04-15T12:21:45;5.87;;;4.70;;
15096;SDS011;7649;52.084;7.478;2023-04-15T12:24:14;4.93;;;4.43;;
15096;SDS011;7649;52.084;7.478;2023-04-15T12:26:44;4.83;;;4.30;;
15096;SDS011;7649;52.084;7.478;2023-04-15T12:29:13;3.90;;;3.60;;
15096;SDS011;7649;52.084;7.478;2023-04-15T12:31:48;4.20;;;3.57;;
15096;SDS011;7649;52.084;7.478;2023-04-15T12:34:17;4.10;;;3.70;;
15096;SDS011;7649;52.084;7.478;2023-04-15T12:36:46;6.03;;;4.30;;
15096;SDS011;7649;52.084;7.478;2023-04-15T12:39:14;5.20;;;3.90;;
15096;SDS011;7649;52.084;7.478;2023-04-15T12:41:44;4.20;;;3.90;;
15096;SDS011;7649;52.084;7.478;2023-04-15T12:44:12;4.97;;;3.70;;
15096;SDS011;7649;52.084;7.478;2023-04-15T12:46:40;3.80;;;3.50;;
15096;SDS011;7649;52.084;7.478;2023-04-15T12:49:09;3.00;;;2.80;;
15096;SDS011;7649;52.084;7.478;2023-04-15T12:51:39;3.50;;;3.20;;
15096;SDS011;7649;52.084;7.478;2023-04-15T12:54:07;3.50;;;3.20;;
15096;SDS011;7649;52.084;7.478;2023-04-15T12:56:36;4.30;;;3.40;;
15096;SDS011;7649;52.084;7.478;2023-04-15T12:59:06;3.70;;;3.40;;
15096;SDS011;7649;52.084;7.478;2023-04-15T13:01:34;3.67;;;3.37;;
15096;SDS011;7649;52.084;7.478;2023-04-15T13:04:02;3.50;;;3.20;;
15096;SDS011;7649;52.084;7.478;2023-04-15T13:06:31;3.60;;;3.20;;
15096;SDS011;7649;52.084;7.478;2023-04-15T13:09:00;3.10;;;2.90;;
15096;SDS011;7649;52.084;7.478;2023-04-15T13:11:31;4.70;;;3.33;;
15096;SDS011;7649;52.084;7.478;2023-04-15T13:13:59;3.60;;;3.30;;
15096;SDS011;7649;52.084;7.478;2023-04-15T13:16:29;3.83;;;3.50;;
15096;SDS011;7649;52.084;7.478;2023-04-15T13:18:58;3.10;;;2.90;;
15096;SDS011;7649;52.084;7.478;2023-04-15T13:21:27;4.30;;;3.27;;
15096;SDS011;7649;52.084;7.478;2023-04-15T13:23:56;4.67;;;4.17;;
15096;SDS011;7649;52.084;7.478;2023-04-15T13:26:24;3.70;;;3.40;;
15096;SDS011;7649;52.084;7.478;2023-04-15T13:28:53;3.50;;;2.80;;
15096;SDS011;7649;52.084;7.478;2023-04-15T13:31:21;3.53;;;3.10;;
15096;SDS011;7649;52.084;7.478;2023-04-15T13:33:51;4.90;;;3.10;;
15096;SDS011;7649;52.084;7.478;2023-04-15T13:36:19;3.50;;;3.23;;
15096;SDS011;7649;52.084;7.478;2023-04-15T13:38:47;4.83;;;4.03;;
15096;SDS011;7649;52.084;7.478;2023-04-15T13:41:16;4.30;;;3.40;;
15096;SDS011;7649;52.084;7.478;2023-04-15T13:43:45;3.17;;;2.87;;
15096;SDS011;7649;52.084;7.478;2023-04-15T13:46:13;5.03;;;3.53;;
15096;SDS011;7649;52.084;7.478;2023-04-15T13:48:41;5.03;;;3.60;;
15096;SDS011;7649;52.084;7.478;2023-04-15T13:51:11;4.17;;;3.77;;
15096;SDS011;7649;52.084;7.478;2023-04-15T13:53:39;4.60;;;3.30;;
15096;SDS011;7649;52.084;7.478;2023-04-15T13:56:08;3.60;;;3.30;;
15096;SDS011;7649;52.084;7.478;2023-04-15T13:58:36;3.70;;;3.40;;
15096;SDS011;7649;52.084;7.478;2023-04-15T14:01:05;5.17;;;4.03;;
15096;SDS011;7649;52.084;7.478;2023-04-15T14:03:33;4.07;;;3.63;;
15096;SDS011;7649;52.084;7.478;2023-04-15T14:06:03;3.90;;;3.50;;
15096;SDS011;7649;52.084;7.478;2023-04-15T14:08:33;3.70;;;3.20;;
15096;SDS011;7649;52.084;7.478;2023-04-15T14:11:01;4.43;;;3.23;;
15096;SDS011;7649;52.084;7.478;2023-04-15T14:13:29;4.23;;;2.73;;
15096;SDS011;7649;52.084;7.478;2023-04-15T14:15:57;2.97;;;2.77;;
15096;SDS011;7649;52.084;7.478;2023-04-15T14:18:26;3.30;;;3.00;;
15096;SDS011;7649;52.084;7.478;2023-04-15T14:20:55;3.13;;;2.80;;
15096;SDS011;7649;52.084;7.478;2023-04-15T14:23:23;3.70;;;3.00;;
15096;SDS011;7649;52.084;7.478;2023-04-15T14:25:53;3.53;;;2.90;;
15096;SDS011;7649;52.084;7.478;2023-04-15T14:28:21;3.50;;;2.80;;
15096;SDS011;7649;52.084;7.478;2023-04-15T14:30:49;5.27;;;3.60;;
15096;SDS011;7649;52.084;7.478;2023-04-15T14:33:18;3.83;;;2.90;;
15096;SDS011;7649;52.084;7.478;2023-04-15T14:35:46;3.60;;;3.10;;
15096;SDS011;7649;52.084;7.478;2023-04-15T14:38:15;3.37;;;2.63;;
15096;SDS011;7649;52.084;7.478;2023-04-15T14:40:43;2.60;;;2.33;;
15096;SDS011;7649;52.084;7.478;2023-04-15T14:43:13;4.33;;;2.60;;
15096;SDS011;7649;52.084;7.478;2023-04-15T14:45:41;4.17;;;2.80;;
15096;SDS011;7649;52.084;7.478;2023-04-15T14:48:10;4.87;;;3.30;;
15096;SDS011;7649;52.084;7.478;2023-04-15T14:50:39;3.93;;;2.67;;
15096;SDS011;7649;52.084;7.478;2023-04-15T14:53:07;3.23;;;2.60;;
15096;SDS011;7649;52.084;7.478;2023-04-15T14:55:36;5.27;;;3.00;;
15096;SDS011;7649;52.084;7.478;2023-04-15T14:58:04;3.30;;;2.90;;
15096;SDS011;7649;52.084;7.478;2023-04-15T15:00:34;18.30;;;10.43;;
15096;SDS011;7649;52.084;7.478;2023-04-15T15:03:05;3.97;;;3.20;;
15096;SDS011;7649;52.084;7.478;2023-04-15T15:05:38;3.13;;;2.67;;
15096;SDS011;7649;52.084;7.478;2023-04-15T15:08:07;4.43;;;2.90;;
15096;SDS011;7649;52.084;7.478;2023-04-15T15:10:36;3.67;;;3.10;;
15096;SDS011;7649;52.084;7.478;2023-04-15T15:13:15;2.80;;;2.40;;
15096;SDS011;7649;52.084;7.478;2023-04-15T15:15:45;3.03;;;2.73;;